Time;durP1;ratioP1;P1;durP2;ratioP2;P2;SDS_P1;SDS_P2;PMS_P1;PMS_P2;Temp;Humidity;BMP_temperature;BMP_pressure;BME280_temperature;BME280_humidity;BME280_pressure;Samples;Min_cycle;Max_cycle;Signal;HPM_P1;HPM_P2
2023/05/24 00:00:29;;;;;;;6.18;2.90;;;;;;;;;;5023654;28;20079;-76
2023/05/24 00:02:56;;;;;;;4.07;2.47;;;;;;;;;;5005577;28;20088;-77
2023/05/24 00:05:23;;;;;;;6.25;2.38;;;;;;;;;;5004618;28;20049;-75
2023/05/24 00:07:50;;;;;;;8.65;3.42;;;;;;;;;;5021515;28;20053;-77
2023/05/24 00:10:17;;;;;;;4.38;2.25;;;;;;;;;;5022697;28;20106;-77
2023/05/24 00:12:43;;;;;;;4.97;2.70;;;;;;;;;;5003891;28;20073;-77
2023/05/24 00:15:10;;;;;;;4.80;2.63;;;;;;;;;;5003991;28;20932;-79
2023/05/24 00:17:39;;;;;;;7.03;3.28;;;;;;;;;;5003778;28;20057;-77
2023/05/24 00:20:10;;;;;;;6.75;2.72;;;;;;;;;;5000511;28;20164;-77
2023/05/24 00:22:38;;;;;;;6.03;2.40;;;;;;;;;;5000961;28;20045;-79
2023/05/24 00:25:05;;;;;;;5.70;2.50;;;;;;;;;;5001182;28;20188;-79
2023/05/24 00:27:32;;;;;;;7.68;2.60;;;;;;;;;;5001011;28;20085;-79
2023/05/24 00:29:59;;;;;;;6.43;2.78;;;;;;;;;;5000443;28;20525;-78
2023/05/24 00:32:25;;;;;;;4.78;3.00;;;;;;;;;;4984600;28;20112;-79
2023/05/24 00:34:52;;;;;;;4.30;2.60;;;;;;;;;;5017397;28;20053;-78
2023/05/24 00:37:19;;;;;;;5.07;2.80;;;;;;;;;;5000761;28;20144;-79
2023/05/24 00:39:49;;;;;;;7.78;2.92;;;;;;;;;;4984259;28;20088;-78
2023/05/24 00:42:16;;;;;;;8.00;2.60;;;;;;;;;;5017077;28;20057;-78
2023/05/24 00:44:42;;;;;;;6.45;2.50;;;;;;;;;;4999865;28;20115;-77
2023/05/24 00:47:09;;;;;;;5.38;2.45;;;;;;;;;;4999761;28;20083;-77
2023/05/24 00:49:36;;;;;;;8.93;2.92;;;;;;;;;;4999647;28;20053;-78
2023/05/24 00:52:03;;;;;;;4.45;2.75;;;;;;;;;;4999349;28;20057;-78
2023/05/24 00:54:30;;;;;;;5.53;2.55;;;;;;;;;;4999723;28;20053;-78
2023/05/24 00:56:56;;;;;;;3.90;2.40;;;;;;;;;;4999523;28;20136;-78
2023/05/24 00:59:23;;;;;;;10.20;3.08;;;;;;;;;;4995263;28;20687;-78
2023/05/24 01:01:50;;;;;;;5.70;2.90;;;;;;;;;;5002968;28;20150;-78
2023/05/24 01:04:19;;;;;;;10.52;3.05;;;;;;;;;;5003019;28;20056;-77
2023/05/24 01:06:58;;;;;;;5.28;2.75;;;;;;;;;;5003138;28;20151;-77
2023/05/24 01:09:32;;;;;;;6.28;2.72;;;;;;;;;;5035367;28;20073;-78
2023/05/24 01:12:05;;;;;;;10.00;3.92;;;;;;;;;;5003068;28;20052;-77
2023/05/24 01:14:50;;;;;;;9.63;2.97;;;;;;;;;;5035186;28;20081;-76
2023/05/24 01:17:23;;;;;;;6.43;2.70;;;;;;;;;;5034848;28;20132;-77
2023/05/24 01:19:50;;;;;;;5.53;2.75;;;;;;;;;;5002516;28;20053;-78
2023/05/24 01:22:32;;;;;;;8.60;3.38;;;;;;;;;;5034812;28;20049;-78
2023/05/24 01:25:29;;;;;;;9.18;3.58;;;;;;;;;;5019989;28;20489;-79
2023/05/24 01:27:56;;;;;;;8.30;3.28;;;;;;;;;;5034841;28;20057;-78
2023/05/24 01:30:25;;;;;;;8.45;3.08;;;;;;;;;;5002068;28;20505;-78
2023/05/24 01:32:52;;;;;;;4.68;2.78;;;;;;;;;;5002239;28;20566;-78
2023/05/24 01:35:19;;;;;;;7.63;3.00;;;;;;;;;;5002092;28;20044;-78
2023/05/24 01:37:46;;;;;;;6.20;3.13;;;;;;;;;;5011651;28;20057;-78
2023/05/24 01:40:12;;;;;;;7.32;3.15;;;;;;;;;;4998642;28;20415;-78
2023/05/24 01:42:43;;;;;;;6.63;3.00;;;;;;;;;;4983027;28;20464;-78
2023/05/24 01:45:15;;;;;;;6.65;2.88;;;;;;;;;;4983259;28;20325;-78
2023/05/24 01:48:04;;;;;;;6.87;3.07;;;;;;;;;;5005923;28;20052;-79
2023/05/24 01:50:33;;;;;;;9.15;3.60;;;;;;;;;;5019163;28;20140;-78
2023/05/24 01:53:06;;;;;;;8.77;3.13;;;;;;;;;;5003388;28;20830;-78
2023/05/24 01:55:34;;;;;;;10.65;3.30;;;;;;;;;;5002787;28;20059;-78
2023/05/24 01:58:04;;;;;;;7.43;3.15;;;;;;;;;;4999227;28;20421;-78
2023/05/24 02:00:32;;;;;;;7.15;2.97;;;;;;;;;;4996546;28;20513;-77
2023/05/24 02:03:00;;;;;;;10.13;3.40;;;;;;;;;;4999175;28;20050;-78
2023/05/24 02:05:28;;;;;;;8.93;3.42;;;;;;;;;;4999255;28;20053;-78
2023/05/24 02:07:54;;;;;;;9.90;3.20;;;;;;;;;;5014170;28;20468;-79
2023/05/24 02:10:21;;;;;;;11.98;3.97;;;;;;;;;;4998903;28;20053;-78
2023/05/24 02:12:48;;;;;;;7.03;3.72;;;;;;;;;;4999245;28;20571;-78
2023/05/24 02:15:15;;;;;;;8.77;2.92;;;;;;;;;;4998247;28;20049;-78
2023/05/24 02:17:42;;;;;;;9.07;3.22;;;;;;;;;;4999927;28;20045;-78
2023/05/24 02:20:09;;;;;;;7.38;2.92;;;;;;;;;;5033711;28;20084;-78
2023/05/24 02:22:36;;;;;;;7.25;3.42;;;;;;;;;;5017686;28;20055;-78
2023/05/24 02:25:03;;;;;;;6.38;3.78;;;;;;;;;;5001041;28;20167;-78
2023/05/24 02:27:30;;;;;;;11.55;3.53;;;;;;;;;;5017731;28;20823;-78
2023/05/24 02:29:57;;;;;;;7.03;3.88;;;;;;;;;;5000607;28;20053;-78
2023/05/24 02:32:24;;;;;;;8.93;3.40;;;;;;;;;;5001468;28;20057;-79
2023/05/24 02:34:51;;;;;;;9.73;3.67;;;;;;;;;;5001739;28;20139;-78
2023/05/24 02:37:19;;;;;;;13.10;3.50;;;;;;;;;;5017728;28;20045;-79
2023/05/24 02:39:46;;;;;;;7.97;3.70;;;;;;;;;;5034118;28;20049;-78
2023/05/24 02:42:13;;;;;;;10.07;3.90;;;;;;;;;;5017417;28;20053;-78
2023/05/24 02:44:41;;;;;;;7.28;3.42;;;;;;;;;;5017442;28;20497;-78
2023/05/24 02:47:08;;;;;;;10.45;4.30;;;;;;;;;;5033461;28;20452;-78
2023/05/24 02:49:35;;;;;;;10.18;5.28;;;;;;;;;;5000860;28;20057;-78
2023/05/24 02:52:01;;;;;;;7.38;3.70;;;;;;;;;;5033559;28;20069;-78
2023/05/24 02:54:28;;;;;;;9.05;3.60;;;;;;;;;;5001092;28;20045;-78
2023/05/24 02:56:56;;;;;;;8.15;3.38;;;;;;;;;;5000537;28;20497;-77
2023/05/24 02:59:23;;;;;;;7.15;2.80;;;;;;;;;;5013724;28;20050;-78
2023/05/24 03:01:50;;;;;;;8.40;3.67;;;;;;;;;;4997273;28;20045;-79
2023/05/24 03:04:17;;;;;;;7.18;3.40;;;;;;;;;;4997866;28;20432;-79
2023/05/24 03:06:44;;;;;;;10.85;4.32;;;;;;;;;;4998511;28;20068;-78
2023/05/24 03:09:11;;;;;;;6.78;3.40;;;;;;;;;;5016904;28;20048;-78
2023/05/24 03:11:38;;;;;;;8.25;3.53;;;;;;;;;;5000799;28;20102;-78
2023/05/24 03:14:05;;;;;;;8.63;3.85;;;;;;;;;;5000849;28;20045;-78
2023/05/24 03:16:32;;;;;;;13.40;3.90;;;;;;;;;;5000594;28;20060;-78
2023/05/24 03:18:59;;;;;;;7.03;3.95;;;;;;;;;;5000482;28;20132;-78
2023/05/24 03:21:26;;;;;;;8.80;4.53;;;;;;;;;;5020618;28;20075;-78
2023/05/24 03:23:53;;;;;;;9.10;3.70;;;;;;;;;;5021000;28;20126;-77
2023/05/24 03:26:19;;;;;;;11.15;3.60;;;;;;;;;;5020885;28;20111;-78
2023/05/24 03:28:46;;;;;;;9.85;4.25;;;;;;;;;;5005789;28;20420;-77
2023/05/24 03:31:13;;;;;;;8.23;3.67;;;;;;;;;;5000638;28;20091;-78
2023/05/24 03:33:40;;;;;;;12.75;4.05;;;;;;;;;;5001073;28;20045;-77
2023/05/24 03:36:07;;;;;;;12.95;3.60;;;;;;;;;;5001060;28;20103;-77
2023/05/24 03:38:33;;;;;;;10.48;4.28;;;;;;;;;;5003506;28;20460;-77
2023/05/24 03:41:00;;;;;;;10.15;3.67;;;;;;;;;;4984583;28;20119;-77
2023/05/24 03:43:27;;;;;;;9.15;3.97;;;;;;;;;;4988303;28;20045;-76
2023/05/24 03:45:54;;;;;;;11.45;4.07;;;;;;;;;;5004106;28;20494;-77
2023/05/24 03:48:21;;;;;;;8.07;3.92;;;;;;;;;;5020389;28;20057;-77
2023/05/24 03:50:48;;;;;;;9.68;3.70;;;;;;;;;;5036624;28;20044;-76
2023/05/24 03:53:15;;;;;;;9.73;3.90;;;;;;;;;;5020530;28;20056;-77
2023/05/24 03:55:41;;;;;;;12.93;4.03;;;;;;;;;;5004013;28;20126;-78
2023/05/24 03:58:08;;;;;;;9.55;3.90;;;;;;;;;;5004177;28;20045;-79
2023/05/24 04:00:35;;;;;;;8.40;3.85;;;;;;;;;;5020135;28;20469;-78
2023/05/24 04:03:05;;;;;;;11.20;3.80;;;;;;;;;;5004250;28;20058;-78
2023/05/24 04:05:32;;;;;;;6.80;3.60;;;;;;;;;;5020641;28;20045;-78
2023/05/24 04:07:59;;;;;;;11.70;3.75;;;;;;;;;;5004095;28;20049;-78
2023/05/24 04:10:26;;;;;;;8.35;4.00;;;;;;;;;;5003569;28;20112;-78
2023/05/24 04:12:55;;;;;;;9.82;3.90;;;;;;;;;;5003976;28;20045;-78
2023/05/24 04:15:23;;;;;;;10.48;4.10;;;;;;;;;;5036094;28;20052;-78
2023/05/24 04:17:53;;;;;;;7.72;3.95;;;;;;;;;;5002660;28;20053;-78
2023/05/24 04:20:24;;;;;;;11.60;3.88;;;;;;;;;;5002014;28;20056;-77
2023/05/24 04:22:51;;;;;;;11.02;4.18;;;;;;;;;;5003841;28;20428;-77
2023/05/24 04:25:18;;;;;;;9.38;4.00;;;;;;;;;;5003115;28;20052;-77
2023/05/24 04:27:47;;;;;;;10.95;4.10;;;;;;;;;;5003814;28;20102;-77
2023/05/24 04:30:15;;;;;;;8.10;3.90;;;;;;;;;;5003518;28;20053;-78
2023/05/24 04:32:45;;;;;;;8.13;4.45;;;;;;;;;;5019594;28;20079;-76
2023/05/24 04:35:13;;;;;;;14.10;4.40;;;;;;;;;;5004077;28;20513;-76
2023/05/24 04:37:39;;;;;;;8.60;3.97;;;;;;;;;;5010458;28;20049;-76
2023/05/24 04:40:08;;;;;;;8.10;4.07;;;;;;;;;;5010459;28;20558;-76
2023/05/24 04:42:35;;;;;;;11.90;4.28;;;;;;;;;;5026910;28;20049;-76
2023/05/24 04:45:02;;;;;;;9.32;4.25;;;;;;;;;;5021334;28;20107;-76
2023/05/24 04:47:29;;;;;;;6.03;3.58;;;;;;;;;;5007211;28;20463;-75
2023/05/24 04:49:56;;;;;;;7.15;3.90;;;;;;;;;;5024490;28;20056;-75
2023/05/24 04:52:23;;;;;;;9.98;3.75;;;;;;;;;;5007694;28;20098;-76
2023/05/24 04:54:50;;;;;;;10.63;5.18;;;;;;;;;;4995277;28;20354;-75
2023/05/24 04:57:17;;;;;;;13.70;5.10;;;;;;;;;;5002988;28;20045;-75
2023/05/24 04:59:43;;;;;;;10.00;4.18;;;;;;;;;;5002884;28;20052;-75
2023/05/24 05:02:10;;;;;;;12.50;4.40;;;;;;;;;;5002992;28;20131;-75
2023/05/24 05:04:37;;;;;;;7.25;3.80;;;;;;;;;;4991061;28;20100;-75
2023/05/24 05:07:06;;;;;;;7.90;4.13;;;;;;;;;;4990898;28;20055;-75
2023/05/24 05:09:32;;;;;;;12.70;4.95;;;;;;;;;;4992336;28;20054;-75
2023/05/24 05:11:59;;;;;;;9.85;3.70;;;;;;;;;;4996891;28;20450;-75
2023/05/24 05:14:26;;;;;;;11.52;3.95;;;;;;;;;;5009067;28;20050;-76
2023/05/24 05:16:53;;;;;;;7.38;3.88;;;;;;;;;;5018757;28;20047;-75
2023/05/24 05:19:20;;;;;;;10.02;3.70;;;;;;;;;;5002999;28;20053;-76
2023/05/24 05:21:47;;;;;;;8.75;3.70;;;;;;;;;;5002228;28;20060;-76
2023/05/24 05:24:15;;;;;;;9.77;4.25;;;;;;;;;;4994004;28;20161;-76
2023/05/24 05:26:41;;;;;;;11.20;4.10;;;;;;;;;;4999201;28;20454;-76
2023/05/24 05:29:08;;;;;;;8.93;4.68;;;;;;;;;;4998992;28;20107;-76
2023/05/24 05:31:35;;;;;;;11.55;4.32;;;;;;;;;;4982808;28;20053;-75
2023/05/24 05:34:03;;;;;;;11.40;3.70;;;;;;;;;;5005044;28;20045;-76
2023/05/24 05:36:31;;;;;;;11.90;4.85;;;;;;;;;;5033887;28;20049;-75
2023/05/24 05:38:58;;;;;;;13.90;4.13;;;;;;;;;;4983313;28;20053;-75
2023/05/24 05:41:24;;;;;;;10.77;4.00;;;;;;;;;;4982405;28;20104;-75
2023/05/24 05:43:51;;;;;;;8.68;3.75;;;;;;;;;;4981104;28;20049;-75
2023/05/24 05:46:20;;;;;;;9.35;3.63;;;;;;;;;;5017554;28;20057;-79
2023/05/24 05:48:47;;;;;;;9.98;3.85;;;;;;;;;;5016048;28;20106;-79
2023/05/24 05:51:14;;;;;;;12.70;5.85;;;;;;;;;;5029917;28;20056;-79
2023/05/24 05:53:40;;;;;;;8.70;3.90;;;;;;;;;;5017160;28;20530;-80
2023/05/24 05:56:07;;;;;;;11.15;3.25;;;;;;;;;;5005002;28;20044;-77
2023/05/24 05:58:34;;;;;;;10.40;4.07;;;;;;;;;;5070906;28;20053;-78
2023/05/24 06:01:04;;;;;;;12.68;3.67;;;;;;;;;;5018024;28;20107;-78
2023/05/24 06:03:31;;;;;;;7.82;3.30;;;;;;;;;;5030697;28;20060;-82
2023/05/24 06:05:58;;;;;;;8.25;4.07;;;;;;;;;;4998831;28;20582;-77
2023/05/24 06:08:26;;;;;;;11.20;3.42;;;;;;;;;;5000328;28;20100;-78
2023/05/24 06:10:53;;;;;;;7.57;3.67;;;;;;;;;;5000074;28;20080;-78
2023/05/24 06:13:19;;;;;;;9.27;3.47;;;;;;;;;;5015985;28;20048;-78
2023/05/24 06:15:46;;;;;;;10.43;3.75;;;;;;;;;;5000352;28;20447;-78
2023/05/24 06:18:14;;;;;;;13.48;3.30;;;;;;;;;;5000000;28;20521;-78
2023/05/24 06:20:41;;;;;;;11.52;3.28;;;;;;;;;;5016121;28;20110;-78
2023/05/24 06:23:08;;;;;;;9.00;3.75;;;;;;;;;;4999895;28;20045;-79
2023/05/24 06:25:37;;;;;;;10.00;3.05;;;;;;;;;;5016553;28;20049;-77
2023/05/24 06:28:04;;;;;;;13.80;3.10;;;;;;;;;;5016936;28;20068;-78
2023/05/24 06:30:32;;;;;;;7.50;3.00;;;;;;;;;;5016132;28;20051;-78
2023/05/24 06:33:00;;;;;;;8.18;3.15;;;;;;;;;;5000220;28;20167;-78
2023/05/24 06:35:27;;;;;;;13.15;3.65;;;;;;;;;;4999646;28;20053;-78
2023/05/24 06:37:54;;;;;;;9.50;3.42;;;;;;;;;;4994054;28;20053;-79
2023/05/24 06:40:20;;;;;;;8.02;3.05;;;;;;;;;;5012275;28;20054;-81
2023/05/24 06:42:47;;;;;;;10.65;3.47;;;;;;;;;;4981546;28;20449;-79
2023/05/24 06:45:14;;;;;;;6.57;2.85;;;;;;;;;;4981993;28;20041;-78
2023/05/24 06:47:41;;;;;;;12.68;3.88;;;;;;;;;;4999943;28;20476;-80
2023/05/24 06:50:08;;;;;;;6.07;2.83;;;;;;;;;;4988742;28;20045;-78
2023/05/24 06:52:35;;;;;;;7.68;3.13;;;;;;;;;;5027873;28;20126;-78
2023/05/24 06:55:02;;;;;;;11.82;3.38;;;;;;;;;;5019778;28;20092;-87
2023/05/24 06:57:29;;;;;;;11.18;2.97;;;;;;;;;;4996929;28;20049;-76
2023/05/24 06:59:56;;;;;;;12.20;3.35;;;;;;;;;;5005456;28;20053;-77
2023/05/24 07:02:26;;;;;;;10.52;3.33;;;;;;;;;;4994021;28;20085;-77
2023/05/24 07:04:53;;;;;;;10.77;3.40;;;;;;;;;;5012076;28;20045;-77
2023/05/24 07:07:20;;;;;;;7.20;3.38;;;;;;;;;;4997670;28;20056;-77
2023/05/24 07:09:47;;;;;;;13.35;3.55;;;;;;;;;;5009546;28;20053;-77
2023/05/24 07:12:14;;;;;;;8.18;2.90;;;;;;;;;;4993535;28;20117;-76
2023/05/24 07:14:41;;;;;;;10.98;3.30;;;;;;;;;;4996189;28;20050;-76
2023/05/24 07:17:11;;;;;;;14.65;3.75;;;;;;;;;;4996224;28;20044;-76
2023/05/24 07:19:38;;;;;;;11.75;3.38;;;;;;;;;;5002014;28;20100;-76
2023/05/24 07:22:06;;;;;;;10.40;3.70;;;;;;;;;;4998038;28;20045;-77
2023/05/24 07:24:33;;;;;;;5.97;3.25;;;;;;;;;;4990387;28;20049;-80
2023/05/24 07:27:00;;;;;;;11.88;3.15;;;;;;;;;;4994769;28;20053;-78
2023/05/24 07:29:29;;;;;;;6.68;3.33;;;;;;;;;;5004237;28;20053;-77
2023/05/24 07:31:57;;;;;;;7.78;2.90;;;;;;;;;;5014164;28;20052;-77
2023/05/24 07:34:26;;;;;;;7.40;3.05;;;;;;;;;;4998073;28;20426;-77
2023/05/24 07:36:53;;;;;;;7.68;3.35;;;;;;;;;;4989128;28;20054;-77
2023/05/24 07:39:20;;;;;;;10.38;3.42;;;;;;;;;;4995152;28;20501;-75
2023/05/24 07:41:47;;;;;;;9.95;3.30;;;;;;;;;;5008223;28;20057;-76
2023/05/24 07:44:14;;;;;;;11.18;3.30;;;;;;;;;;5004123;28;20056;-79
2023/05/24 07:46:41;;;;;;;12.68;2.70;;;;;;;;;;4998545;28;20547;-77
2023/05/24 07:49:08;;;;;;;8.70;2.63;;;;;;;;;;5014284;28;20106;-77
2023/05/24 07:51:35;;;;;;;9.90;3.60;;;;;;;;;;4994469;28;20056;-78
2023/05/24 07:54:02;;;;;;;8.38;2.90;;;;;;;;;;5009127;28;20412;-78
2023/05/24 07:56:29;;;;;;;5.97;3.10;;;;;;;;;;5014463;28;20103;-78
2023/05/24 07:59:02;;;;;;;9.57;3.53;;;;;;;;;;5015668;28;20122;-78
2023/05/24 08:01:35;;;;;;;8.20;3.10;;;;;;;;;;5001366;28;20052;-78
2023/05/24 08:04:02;;;;;;;9.98;4.10;;;;;;;;;;5016845;28;20045;-78
2023/05/24 08:06:31;;;;;;;8.50;3.17;;;;;;;;;;5002221;28;20048;-78
2023/05/24 08:08:58;;;;;;;7.50;3.55;;;;;;;;;;5004574;28;20053;-78
2023/05/24 08:11:25;;;;;;;9.85;3.80;;;;;;;;;;5003714;28;20056;-78
2023/05/24 08:13:52;;;;;;;10.90;3.50;;;;;;;;;;4985302;28;20057;-78
2023/05/24 08:16:19;;;;;;;12.65;3.80;;;;;;;;;;4984286;28;20100;-78
2023/05/24 08:18:45;;;;;;;11.13;3.90;;;;;;;;;;4984196;28;20055;-78
2023/05/24 08:21:12;;;;;;;7.85;3.13;;;;;;;;;;4983879;28;20053;-78
2023/05/24 08:23:40;;;;;;;11.27;4.57;;;;;;;;;;5000402;28;20077;-78
2023/05/24 08:26:07;;;;;;;10.75;3.20;;;;;;;;;;5001981;28;20057;-77
2023/05/24 08:28:34;;;;;;;11.95;3.83;;;;;;;;;;5003554;28;20053;-78
2023/05/24 08:31:01;;;;;;;7.90;2.90;;;;;;;;;;5003380;28;20075;-77
2023/05/24 08:33:28;;;;;;;8.52;3.53;;;;;;;;;;5003495;28;20493;-78
2023/05/24 08:35:55;;;;;;;7.55;3.55;;;;;;;;;;5019392;28;20106;-77
2023/05/24 08:38:22;;;;;;;13.10;3.92;;;;;;;;;;4986118;28;20501;-77
2023/05/24 08:40:49;;;;;;;12.65;3.67;;;;;;;;;;5003199;28;20049;-78
2023/05/24 08:43:15;;;;;;;11.43;3.42;;;;;;;;;;5019560;28;20057;-78
2023/05/24 08:45:42;;;;;;;9.05;3.58;;;;;;;;;;5002934;28;20048;-78
2023/05/24 08:48:11;;;;;;;11.48;3.55;;;;;;;;;;5003153;28;20059;-78
2023/05/24 08:50:38;;;;;;;9.50;3.30;;;;;;;;;;5019441;28;20416;-78
2023/05/24 08:53:05;;;;;;;12.77;4.25;;;;;;;;;;5003049;28;20053;-78
2023/05/24 08:55:32;;;;;;;8.90;3.63;;;;;;;;;;5002833;28;20049;-78
2023/05/24 08:57:59;;;;;;;10.68;3.47;;;;;;;;;;5018955;28;20048;-78
2023/05/24 09:00:26;;;;;;;5.85;3.10;;;;;;;;;;5002518;28;20069;-78
2023/05/24 09:02:53;;;;;;;8.75;3.22;;;;;;;;;;5003653;28;20053;-78
2023/05/24 09:05:21;;;;;;;7.50;3.58;;;;;;;;;;5002707;28;20485;-77
2023/05/24 09:07:49;;;;;;;9.57;4.18;;;;;;;;;;5035263;28;20045;-78
2023/05/24 09:10:16;;;;;;;9.45;3.28;;;;;;;;;;5010673;28;20258;-78
2023/05/24 09:12:49;;;;;;;11.45;3.70;;;;;;;;;;5015169;28;20049;-78
2023/05/24 09:15:15;;;;;;;;;;;;;;;;;;4999795;28;20045;-78
2023/05/24 09:17:42;;;;;;;9.23;3.10;;;;;;;;;;5015340;28;19925;-78
2023/05/24 09:20:10;;;;;;;9.75;3.72;;;;;;;;;;4999098;28;20056;-78
2023/05/24 09:22:38;;;;;;;8.07;3.40;;;;;;;;;;5015544;28;20053;-78
2023/05/24 09:25:08;;;;;;;8.23;3.63;;;;;;;;;;4998989;28;20548;-78
2023/05/24 09:27:36;;;;;;;9.80;2.88;;;;;;;;;;4983447;28;20081;-78
2023/05/24 09:30:08;;;;;;;10.48;3.53;;;;;;;;;;4982637;28;20083;-78
2023/05/24 09:32:36;;;;;;;13.00;4.03;;;;;;;;;;4983487;28;20816;-78
2023/05/24 09:35:07;;;;;;;10.07;3.47;;;;;;;;;;4982670;28;20516;-78
2023/05/24 09:37:35;;;;;;;12.02;3.35;;;;;;;;;;4990202;28;20156;-78
2023/05/24 09:40:05;;;;;;;8.98;3.20;;;;;;;;;;4998351;28;20053;-78
2023/05/24 09:42:32;;;;;;;8.63;3.58;;;;;;;;;;4999609;28;20061;-78
2023/05/24 09:45:10;;;;;;;12.75;3.67;;;;;;;;;;5017581;28;20057;-78
2023/05/24 09:47:41;;;;;;;11.80;4.20;;;;;;;;;;5003763;28;20057;-78
2023/05/24 09:50:13;;;;;;;10.80;3.30;;;;;;;;;;5003060;28;20501;-78
2023/05/24 09:52:40;;;;;;;7.40;3.50;;;;;;;;;;5007569;28;20049;-77
2023/05/24 09:55:14;;;;;;;15.07;4.55;;;;;;;;;;5007271;28;20071;-77
2023/05/24 09:58:07;;;;;;;12.23;4.30;;;;;;;;;;5008789;28;20049;-78
2023/05/24 10:00:40;;;;;;;12.20;4.20;;;;;;;;;;5011345;28;20417;-78
2023/05/24 10:03:26;;;;;;;13.65;4.00;;;;;;;;;;5010757;28;20080;-78
2023/05/24 10:05:53;;;;;;;10.65;3.30;;;;;;;;;;5001953;28;20091;-78
2023/05/24 10:08:21;;;;;;;10.63;3.80;;;;;;;;;;5001570;28;20049;-78
2023/05/24 10:10:47;;;;;;;8.18;4.18;;;;;;;;;;5001688;28;20476;-78
2023/05/24 10:13:16;;;;;;;11.63;3.95;;;;;;;;;;5034130;28;20077;-78
2023/05/24 10:15:44;;;;;;;12.95;4.30;;;;;;;;;;5002196;28;20060;-78
2023/05/24 10:18:11;;;;;;;14.18;4.22;;;;;;;;;;5001866;28;20110;-78
2023/05/24 10:20:40;;;;;;;11.30;3.72;;;;;;;;;;5001719;28;20111;-78
2023/05/24 10:23:29;;;;;;;16.95;4.20;;;;;;;;;;5009789;28;20061;-78
2023/05/24 10:26:08;;;;;;;12.35;4.25;;;;;;;;;;5001383;28;20041;-78
2023/05/24 10:28:57;;;;;;;9.50;4.28;;;;;;;;;;5017964;28;20235;-77
2023/05/24 10:31:35;;;;;;;12.25;3.70;;;;;;;;;;5013403;28;20513;-78
2023/05/24 10:34:02;;;;;;;11.50;4.50;;;;;;;;;;4997899;28;20422;-78
2023/05/24 10:36:34;;;;;;;15.02;3.58;;;;;;;;;;4983476;28;20042;-78
2023/05/24 10:39:02;;;;;;;12.20;3.75;;;;;;;;;;4997692;28;20053;-78
2023/05/24 10:41:29;;;;;;;9.48;3.67;;;;;;;;;;4981660;28;20049;-78
2023/05/24 10:43:56;;;;;;;8.07;3.80;;;;;;;;;;4997352;28;20521;-77
2023/05/24 10:46:36;;;;;;;17.08;4.90;;;;;;;;;;5001003;28;20052;-78
2023/05/24 10:49:05;;;;;;;14.65;3.67;;;;;;;;;;4997951;28;20049;-78
2023/05/24 10:51:37;;;;;;;12.60;4.03;;;;;;;;;;5001074;28;20052;-77
2023/05/24 10:54:25;;;;;;;12.60;4.72;;;;;;;;;;4997830;28;20049;-78
2023/05/24 10:56:52;;;;;;;11.68;3.88;;;;;;;;;;4993716;28;20076;-77
2023/05/24 10:59:27;;;;;;;11.48;3.85;;;;;;;;;;4998252;28;20045;-77
2023/05/24 11:01:56;;;;;;;12.48;3.90;;;;;;;;;;5013603;28;20517;-76
2023/05/24 11:04:23;;;;;;;10.45;4.50;;;;;;;;;;4999439;28;20517;-76
2023/05/24 11:07:02;;;;;;;17.67;3.70;;;;;;;;;;4995704;28;20517;-75
2023/05/24 11:09:29;;;;;;;11.00;3.65;;;;;;;;;;4996270;28;20502;-76
2023/05/24 11:12:02;;;;;;;17.65;4.60;;;;;;;;;;4995522;28;20058;-75
2023/05/24 11:14:31;;;;;;;11.63;3.78;;;;;;;;;;4996605;28;20053;-76
2023/05/24 11:16:59;;;;;;;9.40;3.80;;;;;;;;;;4996204;28;20053;-75
2023/05/24 11:19:50;;;;;;;9.50;3.20;;;;;;;;;;4999302;28;20048;-76
2023/05/24 11:22:22;;;;;;;9.32;3.60;;;;;;;;;;5006073;28;20131;-76
2023/05/24 11:24:51;;;;;;;7.88;3.33;;;;;;;;;;5000000;28;20053;-76
2023/05/24 11:27:18;;;;;;;11.10;3.75;;;;;;;;;;4999236;28;20067;-76
2023/05/24 11:29:46;;;;;;;12.02;3.58;;;;;;;;;;4998930;28;20443;-76
2023/05/24 11:32:15;;;;;;;8.10;2.83;;;;;;;;;;4999165;28;20049;-77
2023/05/24 11:34:45;;;;;;;12.13;3.25;;;;;;;;;;4999162;28;20049;-77
2023/05/24 11:37:12;;;;;;;8.75;3.28;;;;;;;;;;4999584;28;20671;-76
2023/05/24 11:39:43;;;;;;;6.68;2.80;;;;;;;;;;5001214;28;20061;-74
2023/05/24 11:42:11;;;;;;;10.45;3.88;;;;;;;;;;5003203;28;20045;-82
2023/05/24 11:44:37;;;;;;;8.23;2.78;;;;;;;;;;5019234;28;20095;-77
2023/05/24 11:47:06;;;;;;;9.48;3.25;;;;;;;;;;5019189;28;20041;-77
2023/05/24 11:49:34;;;;;;;9.07;3.38;;;;;;;;;;4997783;28;20060;-77
2023/05/24 11:52:01;;;;;;;12.73;2.70;;;;;;;;;;4988824;28;20848;-82
2023/05/24 11:54:29;;;;;;;7.47;2.53;;;;;;;;;;4986571;28;20518;-75
2023/05/24 11:56:56;;;;;;;7.57;3.13;;;;;;;;;;5021530;28;20135;-77
2023/05/24 11:59:27;;;;;;;8.63;3.35;;;;;;;;;;5020435;28;20430;-77
2023/05/24 12:02:02;;;;;;;8.38;3.17;;;;;;;;;;5003718;28;20141;-75
2023/05/24 12:04:30;;;;;;;9.73;2.83;;;;;;;;;;5032814;28;20056;-76
2023/05/24 12:06:57;;;;;;;9.45;2.63;;;;;;;;;;4994599;28;20451;-75
2023/05/24 12:09:24;;;;;;;6.10;2.13;;;;;;;;;;5005534;28;20045;-76
2023/05/24 12:11:52;;;;;;;8.30;2.83;;;;;;;;;;5014012;28;20083;-75
2023/05/24 12:14:23;;;;;;;10.13;2.67;;;;;;;;;;4998872;28;20053;-75
2023/05/24 12:16:54;;;;;;;6.90;2.42;;;;;;;;;;5002269;28;20037;-76
2023/05/24 12:19:24;;;;;;;7.35;2.35;;;;;;;;;;4999154;28;20592;-76
2023/05/24 12:22:03;;;;;;;10.73;3.65;;;;;;;;;;5003903;28;20136;-75
2023/05/24 12:24:30;;;;;;;9.52;3.20;;;;;;;;;;5010179;28;20057;-76
2023/05/24 12:27:01;;;;;;;6.35;2.53;;;;;;;;;;4998912;28;20052;-76
2023/05/24 12:29:37;;;;;;;6.18;2.65;;;;;;;;;;5000851;28;20429;-75
2023/05/24 12:32:10;;;;;;;5.70;2.63;;;;;;;;;;5003782;28;20052;-75
2023/05/24 12:34:40;;;;;;;8.15;2.22;;;;;;;;;;5034336;28;20110;-75
2023/05/24 12:37:08;;;;;;;8.05;2.78;;;;;;;;;;5003856;28;20103;-76
2023/05/24 12:39:35;;;;;;;7.20;2.80;;;;;;;;;;5005604;28;20049;-75
2023/05/24 12:42:03;;;;;;;7.88;2.40;;;;;;;;;;5021231;28;20472;-76
2023/05/24 12:44:33;;;;;;;10.23;2.70;;;;;;;;;;5002535;28;20048;-75
2023/05/24 12:47:01;;;;;;;6.15;2.60;;;;;;;;;;5015028;28;20527;-75
2023/05/24 12:49:28;;;;;;;7.80;2.78;;;;;;;;;;5015800;28;20061;-76
2023/05/24 12:51:55;;;;;;;9.15;2.72;;;;;;;;;;5000536;28;20057;-75
2023/05/24 12:54:24;;;;;;;6.93;2.45;;;;;;;;;;5000757;28;20107;-75
2023/05/24 12:56:53;;;;;;;8.32;2.38;;;;;;;;;;5002101;28;20051;-75
2023/05/24 12:59:22;;;;;;;10.43;3.22;;;;;;;;;;4999390;28;20489;-75
2023/05/24 13:01:50;;;;;;;8.73;2.42;;;;;;;;;;5001654;28;20129;-75
2023/05/24 13:04:19;;;;;;;7.93;2.20;;;;;;;;;;5000257;28;20052;-75
2023/05/24 13:06:47;;;;;;;9.38;2.70;;;;;;;;;;4997451;28;20429;-75
2023/05/24 13:09:16;;;;;;;11.27;2.50;;;;;;;;;;4992736;28;20052;-76
2023/05/24 13:11:44;;;;;;;5.00;2.20;;;;;;;;;;5005447;28;20076;-76
2023/05/24 13:14:11;;;;;;;8.68;2.75;;;;;;;;;;4999452;28;20041;-76
2023/05/24 13:16:38;;;;;;;5.43;2.63;;;;;;;;;;4992101;28;20049;-77
2023/05/24 13:19:05;;;;;;;8.43;2.47;;;;;;;;;;4998732;28;20061;-76
2023/05/24 13:21:32;;;;;;;5.68;2.53;;;;;;;;;;5000153;28;20088;-75
2023/05/24 13:23:59;;;;;;;8.68;2.50;;;;;;;;;;4998256;28;20056;-73
2023/05/24 13:26:26;;;;;;;9.27;3.17;;;;;;;;;;5022870;28;20107;-74
2023/05/24 13:28:53;;;;;;;4.45;2.10;;;;;;;;;;5023331;28;20044;-75
2023/05/24 13:31:40;;;;;;;6.60;2.10;;;;;;;;;;5008051;28;20597;-74
2023/05/24 13:34:09;;;;;;;11.65;2.70;;;;;;;;;;4999027;28;20048;-74
2023/05/24 13:36:37;;;;;;;7.55;2.35;;;;;;;;;;5036816;28;20072;-74
2023/05/24 13:39:05;;;;;;;5.22;2.60;;;;;;;;;;5016300;28;20049;-74
2023/05/24 13:41:41;;;;;;;5.05;2.08;;;;;;;;;;4999942;28;20081;-74
2023/05/24 13:44:09;;;;;;;7.82;2.35;;;;;;;;;;4998156;28;20079;-74
2023/05/24 13:46:37;;;;;;;5.63;2.45;;;;;;;;;;4988399;28;20781;-73
2023/05/24 13:49:05;;;;;;;6.85;1.88;;;;;;;;;;5000242;28;20493;-73
2023/05/24 13:51:32;;;;;;;7.13;2.80;;;;;;;;;;4997254;28;20057;-74
2023/05/24 13:53:59;;;;;;;4.82;2.22;;;;;;;;;;5000246;28;20108;-74
2023/05/24 13:56:31;;;;;;;6.85;2.47;;;;;;;;;;5013789;28;20080;-74
2023/05/24 13:58:59;;;;;;;;;;;;;;;;;;4996255;28;20056;-76
2023/05/24 14:01:26;;;;;;;6.65;2.17;;;;;;;;;;5003613;28;19975;-74
2023/05/24 14:03:53;;;;;;;8.90;2.25;;;;;;;;;;5001760;28;20061;-74
2023/05/24 14:06:20;;;;;;;6.15;2.28;;;;;;;;;;5007244;28;20056;-75
2023/05/24 14:08:47;;;;;;;6.13;2.20;;;;;;;;;;5012958;28;20071;-74
2023/05/24 14:11:15;;;;;;;5.13;1.70;;;;;;;;;;4998369;28;20049;-75
2023/05/24 14:13:42;;;;;;;5.38;2.00;;;;;;;;;;4997959;28;20528;-74
2023/05/24 14:16:29;;;;;;;6.43;1.80;;;;;;;;;;5001004;28;20513;-75
2023/05/24 14:18:56;;;;;;;4.45;1.92;;;;;;;;;;4988864;28;20464;-75
2023/05/24 14:21:25;;;;;;;4.57;1.70;;;;;;;;;;4997030;28;20057;-75
2023/05/24 14:23:52;;;;;;;5.93;2.08;;;;;;;;;;5007541;28;20056;-75
2023/05/24 14:26:22;;;;;;;6.55;2.40;;;;;;;;;;4997543;28;20053;-75
2023/05/24 14:28:49;;;;;;;5.95;2.40;;;;;;;;;;4990240;28;20078;-75
2023/05/24 14:31:20;;;;;;;4.40;1.77;;;;;;;;;;5004923;28;20493;-75
2023/05/24 14:33:47;;;;;;;7.03;2.42;;;;;;;;;;5020643;28;20056;-75
2023/05/24 14:36:14;;;;;;;6.95;2.72;;;;;;;;;;5009123;28;20049;-75
2023/05/24 14:38:41;;;;;;;4.60;2.20;;;;;;;;;;5004307;28;20127;-75
2023/05/24 14:41:08;;;;;;;5.50;1.95;;;;;;;;;;4993414;28;20436;-75
2023/05/24 14:43:36;;;;;;;7.22;2.30;;;;;;;;;;5021516;28;20045;-75
2023/05/24 14:46:03;;;;;;;10.27;2.78;;;;;;;;;;5015554;28;20049;-75